sensor_id;sensor_type;location;lat;lon;timestamp;temperature;humidity
69628;DHT22;56850;51.984;5.088;2024-01-15T00:00:37;7.40;67.90
69628;DHT22;56850;51.984;5.088;2024-01-15T00:03:04;7.40;67.90
69628;DHT22;56850;51.984;5.088;2024-01-15T00:05:31;7.40;67.80
69628;DHT22;56850;51.984;5.088;2024-01-15T00:07:58;7.40;67.70
69628;DHT22;56850;51.984;5.088;2024-01-15T00:10:25;7.40;67.70
69628;DHT22;56850;51.984;5.088;2024-01-15T00:12:51;7.40;67.70
69628;DHT22;56850;51.984;5.088;2024-01-15T00:15:18;7.40;67.70
69628;DHT22;56850;51.984;5.088;2024-01-15T00:17:45;7.40;67.60
69628;DHT22;56850;51.984;5.088;2024-01-15T00:20:12;7.40;67.70
69628;DHT22;56850;51.984;5.088;2024-01-15T00:22:40;7.40;67.70
69628;DHT22;56850;51.984;5.088;2024-01-15T00:25:07;7.40;67.70
69628;DHT22;56850;51.984;5.088;2024-01-15T00:27:34;7.40;67.70
69628;DHT22;56850;51.984;5.088;2024-01-15T00:30:01;7.40;67.60
69628;DHT22;56850;51.984;5.088;2024-01-15T00:32:28;7.40;67.60
69628;DHT22;56850;51.984;5.088;2024-01-15T00:34:55;7.40;67.60
69628;DHT22;56850;51.984;5.088;2024-01-15T00:37:22;7.30;67.60
69628;DHT22;56850;51.984;5.088;2024-01-15T00:39:49;7.40;67.60
69628;DHT22;56850;51.984;5.088;2024-01-15T00:42:16;7.40;67.60
69628;DHT22;56850;51.984;5.088;2024-01-15T00:44:43;7.30;67.60
69628;DHT22;56850;51.984;5.088;2024-01-15T00:47:10;7.30;67.60
69628;DHT22;56850;51.984;5.088;2024-01-15T00:49:37;7.30;67.60
69628;DHT22;56850;51.984;5.088;2024-01-15T00:52:04;7.30;67.60
69628;DHT22;56850;51.984;5.088;2024-01-15T00:54:32;7.30;67.60
69628;DHT22;56850;51.984;5.088;2024-01-15T00:56:59;7.30;67.50
69628;DHT22;56850;51.984;5.088;2024-01-15T00:59:26;7.30;67.60
69628;DHT22;56850;51.984;5.088;2024-01-15T01:01:52;7.30;67.60
69628;DHT22;56850;51.984;5.088;2024-01-15T01:04:19;7.30;67.70
69628;DHT22;56850;51.984;5.088;2024-01-15T01:06:46;7.30;67.70
69628;DHT22;56850;51.984;5.088;2024-01-15T01:09:16;7.30;67.50
69628;DHT22;56850;51.984;5.088;2024-01-15T01:11:43;7.30;67.50
69628;DHT22;56850;51.984;5.088;2024-01-15T01:14:10;7.30;67.40
69628;DHT22;56850;51.984;5.088;2024-01-15T01:16:37;7.30;67.50
69628;DHT22;56850;51.984;5.088;2024-01-15T01:19:06;7.30;67.40
69628;DHT22;56850;51.984;5.088;2024-01-15T01:21:34;7.30;67.40
69628;DHT22;56850;51.984;5.088;2024-01-15T01:24:01;7.30;67.40
69628;DHT22;56850;51.984;5.088;2024-01-15T01:26:28;7.20;67.40
69628;DHT22;56850;51.984;5.088;2024-01-15T01:28:55;7.20;67.40
69628;DHT22;56850;51.984;5.088;2024-01-15T01:31:23;7.20;67.40
69628;DHT22;56850;51.984;5.088;2024-01-15T01:33:50;7.20;67.50
69628;DHT22;56850;51.984;5.088;2024-01-15T01:36:17;7.20;67.40
69628;DHT22;56850;51.984;5.088;2024-01-15T01:38:44;7.20;67.50
69628;DHT22;56850;51.984;5.088;2024-01-15T01:41:11;7.20;67.40
69628;DHT22;56850;51.984;5.088;2024-01-15T01:43:38;7.20;67.40
69628;DHT22;56850;51.984;5.088;2024-01-15T01:46:05;7.20;67.30
69628;DHT22;56850;51.984;5.088;2024-01-15T01:48:32;7.20;67.20
69628;DHT22;56850;51.984;5.088;2024-01-15T01:51:02;7.20;67.10
69628;DHT22;56850;51.984;5.088;2024-01-15T01:53:30;7.20;67.20
69628;DHT22;56850;51.984;5.088;2024-01-15T01:55:58;7.20;67.20
69628;DHT22;56850;51.984;5.088;2024-01-15T01:58:25;7.20;67.20
69628;DHT22;56850;51.984;5.088;2024-01-15T02:00:53;7.20;67.20
69628;DHT22;56850;51.984;5.088;2024-01-15T02:03:20;7.10;67.20
69628;DHT22;56850;51.984;5.088;2024-01-15T02:05:48;7.10;67.20
69628;DHT22;56850;51.984;5.088;2024-01-15T02:08:19;7.10;67.30
69628;DHT22;56850;51.984;5.088;2024-01-15T02:10:46;7.10;67.30
69628;DHT22;56850;51.984;5.088;2024-01-15T02:13:14;7.10;67.40
69628;DHT22;56850;51.984;5.088;2024-01-15T02:15:41;7.10;67.30
69628;DHT22;56850;51.984;5.088;2024-01-15T02:18:10;7.10;67.40
69628;DHT22;56850;51.984;5.088;2024-01-15T02:20:37;7.10;67.30
69628;DHT22;56850;51.984;5.088;2024-01-15T02:23:09;7.10;67.40
69628;DHT22;56850;51.984;5.088;2024-01-15T02:25:43;7.10;67.30
69628;DHT22;56850;51.984;5.088;2024-01-15T02:28:16;7.10;67.20
69628;DHT22;56850;51.984;5.088;2024-01-15T02:30:44;7.10;67.10
69628;DHT22;56850;51.984;5.088;2024-01-15T02:33:12;7.10;67.20
69628;DHT22;56850;51.984;5.088;2024-01-15T02:35:39;7.10;67.30
69628;DHT22;56850;51.984;5.088;2024-01-15T02:38:06;7.00;67.20
69628;DHT22;56850;51.984;5.088;2024-01-15T02:40:34;7.00;67.20
69628;DHT22;56850;51.984;5.088;2024-01-15T02:43:01;7.00;67.30
69628;DHT22;56850;51.984;5.088;2024-01-15T02:45:29;7.00;67.20
69628;DHT22;56850;51.984;5.088;2024-01-15T02:47:56;7.00;67.30
69628;DHT22;56850;51.984;5.088;2024-01-15T02:50:23;7.00;67.30
69628;DHT22;56850;51.984;5.088;2024-01-15T02:52:50;7.00;67.20
69628;DHT22;56850;51.984;5.088;2024-01-15T02:55:17;7.00;67.30
69628;DHT22;56850;51.984;5.088;2024-01-15T02:57:44;7.00;67.30
69628;DHT22;56850;51.984;5.088;2024-01-15T03:00:14;7.00;67.20
69628;DHT22;56850;51.984;5.088;2024-01-15T03:02:43;7.00;67.20
69628;DHT22;56850;51.984;5.088;2024-01-15T03:05:14;7.10;67.10
69628;DHT22;56850;51.984;5.088;2024-01-15T03:07:41;7.10;67.10
69628;DHT22;56850;51.984;5.088;2024-01-15T03:10:08;7.10;67.20
69628;DHT22;56850;51.984;5.088;2024-01-15T03:12:35;7.10;67.20
69628;DHT22;56850;51.984;5.088;2024-01-15T03:15:03;7.10;67.10
69628;DHT22;56850;51.984;5.088;2024-01-15T03:17:30;7.10;67.10
69628;DHT22;56850;51.984;5.088;2024-01-15T03:19:57;7.00;67.10
69628;DHT22;56850;51.984;5.088;2024-01-15T03:22:24;7.00;67.10
69628;DHT22;56850;51.984;5.088;2024-01-15T03:24:52;7.00;67.10
69628;DHT22;56850;51.984;5.088;2024-01-15T03:27:19;7.00;67.10
69628;DHT22;56850;51.984;5.088;2024-01-15T03:29:46;7.00;67.20
69628;DHT22;56850;51.984;5.088;2024-01-15T03:32:13;7.00;67.20
69628;DHT22;56850;51.984;5.088;2024-01-15T03:34:39;7.00;67.20
69628;DHT22;56850;51.984;5.088;2024-01-15T03:37:06;7.00;67.30
69628;DHT22;56850;51.984;5.088;2024-01-15T03:39:33;7.00;67.20
69628;DHT22;56850;51.984;5.088;2024-01-15T03:42:00;7.00;67.20
69628;DHT22;56850;51.984;5.088;2024-01-15T03:44:28;7.00;67.20
69628;DHT22;56850;51.984;5.088;2024-01-15T03:46:55;6.90;67.20
69628;DHT22;56850;51.984;5.088;2024-01-15T03:49:22;6.90;67.20
69628;DHT22;56850;51.984;5.088;2024-01-15T03:51:49;6.90;67.20
69628;DHT22;56850;51.984;5.088;2024-01-15T03:54:16;6.90;67.10
69628;DHT22;56850;51.984;5.088;2024-01-15T03:56:46;7.00;67.20
69628;DHT22;56850;51.984;5.088;2024-01-15T03:59:13;7.00;67.10
69628;DHT22;56850;51.984;5.088;2024-01-15T04:01:40;7.00;67.10
69628;DHT22;56850;51.984;5.088;2024-01-15T04:04:07;7.00;67.10
69628;DHT22;56850;51.984;5.088;2024-01-15T04:06:34;7.00;67.10
69628;DHT22;56850;51.984;5.088;2024-01-15T04:09:01;7.00;67.10
69628;DHT22;56850;51.984;5.088;2024-01-15T04:11:28;7.00;67.00
69628;DHT22;56850;51.984;5.088;2024-01-15T04:13:55;7.00;67.00
69628;DHT22;56850;51.984;5.088;2024-01-15T04:16:22;6.90;67.10
69628;DHT22;56850;51.984;5.088;2024-01-15T04:18:49;6.90;67.10
69628;DHT22;56850;51.984;5.088;2024-01-15T04:21:19;6.90;67.20
69628;DHT22;56850;51.984;5.088;2024-01-15T04:23:46;6.90;67.30
69628;DHT22;56850;51.984;5.088;2024-01-15T04:26:13;6.90;67.30
69628;DHT22;56850;51.984;5.088;2024-01-15T04:28:40;6.90;67.20
69628;DHT22;56850;51.984;5.088;2024-01-15T04:31:07;6.90;67.30
69628;DHT22;56850;51.984;5.088;2024-01-15T04:33:34;6.90;67.20
69628;DHT22;56850;51.984;5.088;2024-01-15T04:36:03;6.90;67.20
69628;DHT22;56850;51.984;5.088;2024-01-15T04:38:30;6.90;67.20
69628;DHT22;56850;51.984;5.088;2024-01-15T04:40:57;6.90;67.10
69628;DHT22;56850;51.984;5.088;2024-01-15T04:43:24;6.90;67.10
69628;DHT22;56850;51.984;5.088;2024-01-15T04:45:51;6.90;67.20
69628;DHT22;56850;51.984;5.088;2024-01-15T04:48:18;6.90;67.30
69628;DHT22;56850;51.984;5.088;2024-01-15T04:50:45;6.80;67.30
69628;DHT22;56850;51.984;5.088;2024-01-15T04:53:13;6.80;67.40
69628;DHT22;56850;51.984;5.088;2024-01-15T04:55:40;6.80;67.30
69628;DHT22;56850;51.984;5.088;2024-01-15T04:58:07;6.90;67.30
69628;DHT22;56850;51.984;5.088;2024-01-15T05:00:34;6.90;67.20
69628;DHT22;56850;51.984;5.088;2024-01-15T05:03:04;6.90;67.30
69628;DHT22;56850;51.984;5.088;2024-01-15T05:05:31;6.90;67.10
69628;DHT22;56850;51.984;5.088;2024-01-15T05:07:58;6.90;67.20
69628;DHT22;56850;51.984;5.088;2024-01-15T05:10:24;6.90;67.20
69628;DHT22;56850;51.984;5.088;2024-01-15T05:12:52;6.90;67.20
69628;DHT22;56850;51.984;5.088;2024-01-15T05:15:19;6.90;67.20
69628;DHT22;56850;51.984;5.088;2024-01-15T05:17:46;6.90;67.20
69628;DHT22;56850;51.984;5.088;2024-01-15T05:20:13;6.90;67.20
69628;DHT22;56850;51.984;5.088;2024-01-15T05:22:40;6.90;67.20
69628;DHT22;56850;51.984;5.088;2024-01-15T05:25:07;6.90;67.20
69628;DHT22;56850;51.984;5.088;2024-01-15T05:27:34;6.90;67.30
69628;DHT22;56850;51.984;5.088;2024-01-15T05:30:01;6.90;67.20
69628;DHT22;56850;51.984;5.088;2024-01-15T05:32:31;6.90;67.30
69628;DHT22;56850;51.984;5.088;2024-01-15T05:35:01;6.90;67.10
69628;DHT22;56850;51.984;5.088;2024-01-15T05:37:28;6.90;67.20
69628;DHT22;56850;51.984;5.088;2024-01-15T05:39:55;6.90;67.20
69628;DHT22;56850;51.984;5.088;2024-01-15T05:42:22;6.90;67.30
69628;DHT22;56850;51.984;5.088;2024-01-15T05:44:49;6.90;67.30
69628;DHT22;56850;51.984;5.088;2024-01-15T05:47:16;6.90;67.30
69628;DHT22;56850;51.984;5.088;2024-01-15T05:49:43;6.90;67.20
69628;DHT22;56850;51.984;5.088;2024-01-15T05:52:10;6.90;67.20
69628;DHT22;56850;51.984;5.088;2024-01-15T05:54:36;6.80;67.10
69628;DHT22;56850;51.984;5.088;2024-01-15T05:57:06;6.90;67.20
69628;DHT22;56850;51.984;5.088;2024-01-15T05:59:33;6.80;67.20
69628;DHT22;56850;51.984;5.088;2024-01-15T06:02:03;6.80;67.30
69628;DHT22;56850;51.984;5.088;2024-01-15T06:04:31;6.80;67.30
69628;DHT22;56850;51.984;5.088;2024-01-15T06:06:58;6.80;67.30
69628;DHT22;56850;51.984;5.088;2024-01-15T06:09:25;6.80;67.30
69628;DHT22;56850;51.984;5.088;2024-01-15T06:11:52;6.80;67.30
69628;DHT22;56850;51.984;5.088;2024-01-15T06:14:19;6.70;67.30
69628;DHT22;56850;51.984;5.088;2024-01-15T06:16:46;6.70;67.30
69628;DHT22;56850;51.984;5.088;2024-01-15T06:19:12;6.80;67.40
69628;DHT22;56850;51.984;5.088;2024-01-15T06:21:39;6.80;67.30
69628;DHT22;56850;51.984;5.088;2024-01-15T06:24:07;6.80;67.40
69628;DHT22;56850;51.984;5.088;2024-01-15T06:26:42;6.80;67.30
69628;DHT22;56850;51.984;5.088;2024-01-15T06:29:09;6.80;67.40
69628;DHT22;56850;51.984;5.088;2024-01-15T06:31:36;6.80;67.40
69628;DHT22;56850;51.984;5.088;2024-01-15T06:34:03;6.70;67.40
69628;DHT22;56850;51.984;5.088;2024-01-15T06:36:32;6.70;67.40
69628;DHT22;56850;51.984;5.088;2024-01-15T06:38:59;6.70;67.40
69628;DHT22;56850;51.984;5.088;2024-01-15T06:41:26;6.70;67.50
69628;DHT22;56850;51.984;5.088;2024-01-15T06:43:53;6.70;67.50
69628;DHT22;56850;51.984;5.088;2024-01-15T06:46:23;6.70;67.50
69628;DHT22;56850;51.984;5.088;2024-01-15T06:48:50;6.70;67.40
69628;DHT22;56850;51.984;5.088;2024-01-15T06:51:17;6.80;67.50
69628;DHT22;56850;51.984;5.088;2024-01-15T06:53:44;6.70;67.40
69628;DHT22;56850;51.984;5.088;2024-01-15T06:56:11;6.70;67.40
69628;DHT22;56850;51.984;5.088;2024-01-15T06:58:38;6.70;67.50
69628;DHT22;56850;51.984;5.088;2024-01-15T07:01:05;6.70;67.50
69628;DHT22;56850;51.984;5.088;2024-01-15T07:03:34;6.80;67.30
69628;DHT22;56850;51.984;5.088;2024-01-15T07:06:02;6.80;67.40
69628;DHT22;56850;51.984;5.088;2024-01-15T07:08:29;6.80;67.30
69628;DHT22;56850;51.984;5.088;2024-01-15T07:10:56;6.80;67.30
69628;DHT22;56850;51.984;5.088;2024-01-15T07:13:23;6.80;67.40
69628;DHT22;56850;51.984;5.088;2024-01-15T07:15:50;6.70;67.40
69628;DHT22;56850;51.984;5.088;2024-01-15T07:18:17;6.80;67.40
69628;DHT22;56850;51.984;5.088;2024-01-15T07:20:44;6.80;67.30
69628;DHT22;56850;51.984;5.088;2024-01-15T07:23:11;6.80;67.30
69628;DHT22;56850;51.984;5.088;2024-01-15T07:25:38;6.80;67.30
69628;DHT22;56850;51.984;5.088;2024-01-15T07:28:05;6.70;67.30
69628;DHT22;56850;51.984;5.088;2024-01-15T07:30:33;6.70;67.30
69628;DHT22;56850;51.984;5.088;2024-01-15T07:33:00;6.70;67.40
69628;DHT22;56850;51.984;5.088;2024-01-15T07:35:27;6.70;67.40
69628;DHT22;56850;51.984;5.088;2024-01-15T07:37:54;6.70;67.50
69628;DHT22;56850;51.984;5.088;2024-01-15T07:40:21;6.70;67.60
69628;DHT22;56850;51.984;5.088;2024-01-15T07:42:48;6.70;67.60
69628;DHT22;56850;51.984;5.088;2024-01-15T07:45:15;6.70;67.60
69628;DHT22;56850;51.984;5.088;2024-01-15T07:47:43;6.70;67.60
69628;DHT22;56850;51.984;5.088;2024-01-15T07:50:12;6.70;67.50
69628;DHT22;56850;51.984;5.088;2024-01-15T07:52:40;6.70;67.50
69628;DHT22;56850;51.984;5.088;2024-01-15T07:55:08;6.70;67.50
69628;DHT22;56850;51.984;5.088;2024-01-15T07:57:38;6.70;67.50
69628;DHT22;56850;51.984;5.088;2024-01-15T08:00:06;6.80;67.40
69628;DHT22;56850;51.984;5.088;2024-01-15T08:02:33;6.80;67.40
69628;DHT22;56850;51.984;5.088;2024-01-15T08:05:03;6.70;67.40
69628;DHT22;56850;51.984;5.088;2024-01-15T08:07:31;6.70;67.40
69628;DHT22;56850;51.984;5.088;2024-01-15T08:09:58;6.70;67.50
69628;DHT22;56850;51.984;5.088;2024-01-15T08:12:25;6.70;67.40
69628;DHT22;56850;51.984;5.088;2024-01-15T08:14:52;6.70;67.50
69628;DHT22;56850;51.984;5.088;2024-01-15T08:17:19;6.80;67.50
69628;DHT22;56850;51.984;5.088;2024-01-15T08:19:46;6.80;67.40
69628;DHT22;56850;51.984;5.088;2024-01-15T08:22:13;6.80;67.30
69628;DHT22;56850;51.984;5.088;2024-01-15T08:24:40;6.80;67.40
69628;DHT22;56850;51.984;5.088;2024-01-15T08:27:07;6.80;67.30
69628;DHT22;56850;51.984;5.088;2024-01-15T08:29:34;6.80;67.30
69628;DHT22;56850;51.984;5.088;2024-01-15T08:32:01;6.80;67.30
69628;DHT22;56850;51.984;5.088;2024-01-15T08:34:29;6.80;67.30
69628;DHT22;56850;51.984;5.088;2024-01-15T08:36:58;6.80;67.40
69628;DHT22;56850;51.984;5.088;2024-01-15T08:39:24;6.80;67.40
69628;DHT22;56850;51.984;5.088;2024-01-15T08:41:52;6.80;67.30
69628;DHT22;56850;51.984;5.088;2024-01-15T08:44:19;6.80;67.30
69628;DHT22;56850;51.984;5.088;2024-01-15T08:46:46;6.80;67.40
69628;DHT22;56850;51.984;5.088;2024-01-15T08:49:13;6.80;67.40
69628;DHT22;56850;51.984;5.088;2024-01-15T08:51:40;6.80;67.40
69628;DHT22;56850;51.984;5.088;2024-01-15T08:54:07;6.80;67.30
69628;DHT22;56850;51.984;5.088;2024-01-15T08:56:35;6.80;67.30
69628;DHT22;56850;51.984;5.088;2024-01-15T08:59:02;6.90;67.40
69628;DHT22;56850;51.984;5.088;2024-01-15T09:01:29;6.90;67.30
69628;DHT22;56850;51.984;5.088;2024-01-15T09:03:56;6.90;67.20
69628;DHT22;56850;51.984;5.088;2024-01-15T09:06:23;6.90;67.10
69628;DHT22;56850;51.984;5.088;2024-01-15T09:08:50;6.90;67.10
69628;DHT22;56850;51.984;5.088;2024-01-15T09:11:17;7.00;67.10
69628;DHT22;56850;51.984;5.088;2024-01-15T09:13:44;7.00;67.10
69628;DHT22;56850;51.984;5.088;2024-01-15T09:16:11;7.00;67.10
69628;DHT22;56850;51.984;5.088;2024-01-15T09:18:42;7.00;67.00
69628;DHT22;56850;51.984;5.088;2024-01-15T09:21:09;7.00;67.00
69628;DHT22;56850;51.984;5.088;2024-01-15T09:23:36;7.10;66.90
69628;DHT22;56850;51.984;5.088;2024-01-15T09:26:03;7.10;66.90
69628;DHT22;56850;51.984;5.088;2024-01-15T09:28:31;7.10;66.90
69628;DHT22;56850;51.984;5.088;2024-01-15T09:30:58;7.20;66.90
69628;DHT22;56850;51.984;5.088;2024-01-15T09:33:26;7.20;66.80
69628;DHT22;56850;51.984;5.088;2024-01-15T09:35:53;7.20;66.70
69628;DHT22;56850;51.984;5.088;2024-01-15T09:38:20;7.30;66.70
69628;DHT22;56850;51.984;5.088;2024-01-15T09:40:47;7.30;66.60
69628;DHT22;56850;51.984;5.088;2024-01-15T09:43:17;7.40;66.50
69628;DHT22;56850;51.984;5.088;2024-01-15T09:45:44;7.40;66.30
69628;DHT22;56850;51.984;5.088;2024-01-15T09:48:11;7.50;66.20
69628;DHT22;56850;51.984;5.088;2024-01-15T09:50:42;7.50;66.10
69628;DHT22;56850;51.984;5.088;2024-01-15T09:53:14;7.60;65.90
69628;DHT22;56850;51.984;5.088;2024-01-15T09:55:46;7.60;65.90
69628;DHT22;56850;51.984;5.088;2024-01-15T09:58:13;7.70;65.70
69628;DHT22;56850;51.984;5.088;2024-01-15T10:00:41;7.70;65.50
69628;DHT22;56850;51.984;5.088;2024-01-15T10:03:13;7.80;65.40
69628;DHT22;56850;51.984;5.088;2024-01-15T10:05:43;7.80;65.20
69628;DHT22;56850;51.984;5.088;2024-01-15T10:08:11;7.80;65.10
69628;DHT22;56850;51.984;5.088;2024-01-15T10:10:38;7.90;65.10
69628;DHT22;56850;51.984;5.088;2024-01-15T10:13:07;7.90;65.10
69628;DHT22;56850;51.984;5.088;2024-01-15T10:15:35;7.90;65.00
69628;DHT22;56850;51.984;5.088;2024-01-15T10:18:05;7.90;64.90
69628;DHT22;56850;51.984;5.088;2024-01-15T10:20:34;7.90;64.90
69628;DHT22;56850;51.984;5.088;2024-01-15T10:23:05;8.00;64.80
69628;DHT22;56850;51.984;5.088;2024-01-15T10:25:32;8.00;64.70
69628;DHT22;56850;51.984;5.088;2024-01-15T10:28:00;8.00;64.70
69628;DHT22;56850;51.984;5.088;2024-01-15T10:30:28;8.00;64.60
69628;DHT22;56850;51.984;5.088;2024-01-15T10:33:03;8.10;64.50
69628;DHT22;56850;51.984;5.088;2024-01-15T10:35:32;8.10;64.30
69628;DHT22;56850;51.984;5.088;2024-01-15T10:38:00;8.10;64.30
69628;DHT22;56850;51.984;5.088;2024-01-15T10:40:28;8.20;64.20
69628;DHT22;56850;51.984;5.088;2024-01-15T10:42:55;8.20;64.10
69628;DHT22;56850;51.984;5.088;2024-01-15T10:45:22;8.20;64.20
69628;DHT22;56850;51.984;5.088;2024-01-15T10:47:49;8.20;64.10
69628;DHT22;56850;51.984;5.088;2024-01-15T10:50:17;8.20;64.10
69628;DHT22;56850;51.984;5.088;2024-01-15T10:52:44;8.20;64.00
69628;DHT22;56850;51.984;5.088;2024-01-15T10:55:11;8.30;64.00
69628;DHT22;56850;51.984;5.088;2024-01-15T10:57:45;8.30;63.90
69628;DHT22;56850;51.984;5.088;2024-01-15T11:00:15;8.30;63.80
69628;DHT22;56850;51.984;5.088;2024-01-15T11:02:46;8.40;63.80
69628;DHT22;56850;51.984;5.088;2024-01-15T11:05:13;8.30;63.60
69628;DHT22;56850;51.984;5.088;2024-01-15T11:07:40;8.40;63.70
69628;DHT22;56850;51.984;5.088;2024-01-15T11:10:08;8.40;63.60
69628;DHT22;56850;51.984;5.088;2024-01-15T11:12:55;8.40;63.50
69628;DHT22;56850;51.984;5.088;2024-01-15T11:15:22;8.40;63.40
69628;DHT22;56850;51.984;5.088;2024-01-15T11:18:02;8.50;63.30
69628;DHT22;56850;51.984;5.088;2024-01-15T11:20:32;8.50;63.30
69628;DHT22;56850;51.984;5.088;2024-01-15T11:22:59;8.40;63.20
69628;DHT22;56850;51.984;5.088;2024-01-15T11:25:34;8.50;63.20
69628;DHT22;56850;51.984;5.088;2024-01-15T11:28:03;8.50;63.10
69628;DHT22;56850;51.984;5.088;2024-01-15T11:30:30;8.50;63.10
69628;DHT22;56850;51.984;5.088;2024-01-15T11:32:58;8.50;63.10
69628;DHT22;56850;51.984;5.088;2024-01-15T11:35:48;8.50;63.10
69628;DHT22;56850;51.984;5.088;2024-01-15T11:38:26;8.50;63.10
69628;DHT22;56850;51.984;5.088;2024-01-15T11:40:55;8.50;63.10
69628;DHT22;56850;51.984;5.088;2024-01-15T11:43:22;8.60;63.00
69628;DHT22;56850;51.984;5.088;2024-01-15T11:45:52;8.60;62.90
69628;DHT22;56850;51.984;5.088;2024-01-15T11:48:19;8.60;62.80
69628;DHT22;56850;51.984;5.088;2024-01-15T11:50:47;8.60;62.70
69628;DHT22;56850;51.984;5.088;2024-01-15T11:53:32;8.70;62.60
69628;DHT22;56850;51.984;5.088;2024-01-15T11:56:02;8.70;62.60
69628;DHT22;56850;51.984;5.088;2024-01-15T11:58:30;8.70;62.50
69628;DHT22;56850;51.984;5.088;2024-01-15T12:00:57;8.70;62.30
69628;DHT22;56850;51.984;5.088;2024-01-15T12:03:24;8.80;62.20
69628;DHT22;56850;51.984;5.088;2024-01-15T12:05:52;8.80;62.20
69628;DHT22;56850;51.984;5.088;2024-01-15T12:08:23;8.80;62.10
69628;DHT22;56850;51.984;5.088;2024-01-15T12:10:53;8.80;62.00
69628;DHT22;56850;51.984;5.088;2024-01-15T12:13:21;8.80;61.90
69628;DHT22;56850;51.984;5.088;2024-01-15T12:15:48;8.80;61.90
69628;DHT22;56850;51.984;5.088;2024-01-15T12:18:17;8.80;61.90
69628;DHT22;56850;51.984;5.088;2024-01-15T12:20:46;8.80;61.90
69628;DHT22;56850;51.984;5.088;2024-01-15T12:23:24;8.80;61.90
69628;DHT22;56850;51.984;5.088;2024-01-15T12:25:51;8.90;61.80
69628;DHT22;56850;51.984;5.088;2024-01-15T12:28:18;8.90;61.80
69628;DHT22;56850;51.984;5.088;2024-01-15T12:30:47;8.90;61.70
69628;DHT22;56850;51.984;5.088;2024-01-15T12:33:20;8.90;61.60
69628;DHT22;56850;51.984;5.088;2024-01-15T12:35:47;8.90;61.60
69628;DHT22;56850;51.984;5.088;2024-01-15T12:38:18;8.90;61.50
69628;DHT22;56850;51.984;5.088;2024-01-15T12:40:45;8.90;61.50
69628;DHT22;56850;51.984;5.088;2024-01-15T12:43:14;8.90;61.60
69628;DHT22;56850;51.984;5.088;2024-01-15T12:45:41;8.90;61.60
69628;DHT22;56850;51.984;5.088;2024-01-15T12:48:10;8.90;61.60
69628;DHT22;56850;51.984;5.088;2024-01-15T12:50:37;8.90;61.50
69628;DHT22;56850;51.984;5.088;2024-01-15T12:53:04;8.90;61.50
69628;DHT22;56850;51.984;5.088;2024-01-15T12:55:31;9.00;61.60
69628;DHT22;56850;51.984;5.088;2024-01-15T12:57:58;9.00;61.60
69628;DHT22;56850;51.984;5.088;2024-01-15T13:00:31;9.10;61.50
69628;DHT22;56850;51.984;5.088;2024-01-15T13:02:58;9.10;61.40
69628;DHT22;56850;51.984;5.088;2024-01-15T13:05:27;9.10;61.20
69628;DHT22;56850;51.984;5.088;2024-01-15T13:07:55;9.20;61.10
69628;DHT22;56850;51.984;5.088;2024-01-15T13:10:22;9.20;61.00
69628;DHT22;56850;51.984;5.088;2024-01-15T13:12:52;9.20;60.90
69628;DHT22;56850;51.984;5.088;2024-01-15T13:15:19;9.20;60.80
69628;DHT22;56850;51.984;5.088;2024-01-15T13:17:46;9.20;60.80
69628;DHT22;56850;51.984;5.088;2024-01-15T13:20:13;9.30;60.90
69628;DHT22;56850;51.984;5.088;2024-01-15T13:22:41;9.20;60.90
69628;DHT22;56850;51.984;5.088;2024-01-15T13:25:11;9.20;60.90
69628;DHT22;56850;51.984;5.088;2024-01-15T13:27:38;9.20;61.00
69628;DHT22;56850;51.984;5.088;2024-01-15T13:30:09;9.20;61.10
69628;DHT22;56850;51.984;5.088;2024-01-15T13:32:37;9.20;61.10
69628;DHT22;56850;51.984;5.088;2024-01-15T13:35:04;9.20;61.10
69628;DHT22;56850;51.984;5.088;2024-01-15T13:37:34;9.30;61.00
69628;DHT22;56850;51.984;5.088;2024-01-15T13:40:01;9.30;61.00
69628;DHT22;56850;51.984;5.088;2024-01-15T13:42:28;9.30;60.90
69628;DHT22;56850;51.984;5.088;2024-01-15T13:44:55;9.30;60.90
69628;DHT22;56850;51.984;5.088;2024-01-15T13:47:22;9.40;60.80
69628;DHT22;56850;51.984;5.088;2024-01-15T13:49:49;9.40;60.70
69628;DHT22;56850;51.984;5.088;2024-01-15T13:52:16;9.50;60.60
69628;DHT22;56850;51.984;5.088;2024-01-15T13:54:46;9.50;60.40
69628;DHT22;56850;51.984;5.088;2024-01-15T13:57:17;9.50;60.40
69628;DHT22;56850;51.984;5.088;2024-01-15T13:59:47;9.50;60.30
69628;DHT22;56850;51.984;5.088;2024-01-15T14:02:16;9.60;60.30
69628;DHT22;56850;51.984;5.088;2024-01-15T14:04:47;9.60;60.10
69628;DHT22;56850;51.984;5.088;2024-01-15T14:07:16;9.60;60.00
69628;DHT22;56850;51.984;5.088;2024-01-15T14:09:46;9.60;60.00
69628;DHT22;56850;51.984;5.088;2024-01-15T14:12:13;9.70;59.90
69628;DHT22;56850;51.984;5.088;2024-01-15T14:14:41;9.70;59.90
69628;DHT22;56850;51.984;5.088;2024-01-15T14:17:08;9.70;59.80
69628;DHT22;56850;51.984;5.088;2024-01-15T14:19:35;9.80;59.70
69628;DHT22;56850;51.984;5.088;2024-01-15T14:22:02;9.70;59.60
69628;DHT22;56850;51.984;5.088;2024-01-15T14:24:30;9.70;59.70
69628;DHT22;56850;51.984;5.088;2024-01-15T14:26:57;9.70;59.60
69628;DHT22;56850;51.984;5.088;2024-01-15T14:29:25;9.70;59.60
69628;DHT22;56850;51.984;5.088;2024-01-15T14:31:53;9.70;59.60
69628;DHT22;56850;51.984;5.088;2024-01-15T14:34:20;9.70;59.70
69628;DHT22;56850;51.984;5.088;2024-01-15T14:36:51;9.60;59.60
69628;DHT22;56850;51.984;5.088;2024-01-15T14:39:24;9.60;59.70
69628;DHT22;56850;51.984;5.088;2024-01-15T14:41:52;9.60;59.70
69628;DHT22;56850;51.984;5.088;2024-01-15T14:44:22;9.60;59.70
69628;DHT22;56850;51.984;5.088;2024-01-15T14:46:49;9.60;59.70
69628;DHT22;56850;51.984;5.088;2024-01-15T14:49:16;9.60;59.70
69628;DHT22;56850;51.984;5.088;2024-01-15T14:51:44;9.50;59.70
69628;DHT22;56850;51.984;5.088;2024-01-15T14:54:11;9.50;59.80
69628;DHT22;56850;51.984;5.088;2024-01-15T14:56:38;9.50;59.80
69628;DHT22;56850;51.984;5.088;2024-01-15T14:59:05;9.50;59.80
69628;DHT22;56850;51.984;5.088;2024-01-15T15:01:35;9.50;59.70
69628;DHT22;56850;51.984;5.088;2024-01-15T15:04:02;9.60;59.70
69628;DHT22;56850;51.984;5.088;2024-01-15T15:06:29;9.60;59.70
69628;DHT22;56850;51.984;5.088;2024-01-15T15:08:57;9.60;59.60
69628;DHT22;56850;51.984;5.088;2024-01-15T15:11:36;9.60;59.60
69628;DHT22;56850;51.984;5.088;2024-01-15T15:14:03;9.60;59.60
69628;DHT22;56850;51.984;5.088;2024-01-15T15:16:33;9.50;59.70
69628;DHT22;56850;51.984;5.088;2024-01-15T15:19:00;9.50;59.70
69628;DHT22;56850;51.984;5.088;2024-01-15T15:21:27;9.50;59.70
69628;DHT22;56850;51.984;5.088;2024-01-15T15:23:55;9.50;59.60
69628;DHT22;56850;51.984;5.088;2024-01-15T15:26:23;9.50;59.60
69628;DHT22;56850;51.984;5.088;2024-01-15T15:28:50;9.50;59.70
69628;DHT22;56850;51.984;5.088;2024-01-15T15:31:17;9.40;59.70
69628;DHT22;56850;51.984;5.088;2024-01-15T15:33:44;9.40;59.80
69628;DHT22;56850;51.984;5.088;2024-01-15T15:36:12;9.40;59.80
69628;DHT22;56850;51.984;5.088;2024-01-15T15:38:39;9.50;59.70
69628;DHT22;56850;51.984;5.088;2024-01-15T15:41:06;9.50;59.70
69628;DHT22;56850;51.984;5.088;2024-01-15T15:43:33;9.40;59.60
69628;DHT22;56850;51.984;5.088;2024-01-15T15:46:01;9.40;59.60
69628;DHT22;56850;51.984;5.088;2024-01-15T15:48:28;9.40;59.60